Time;durP1;ratioP1;P1;durP2;ratioP2;P2;SDS_P1;SDS_P2;PMS_P1;PMS_P2;Temp;Humidity;BMP_temperature;BMP_pressure;BME280_temperature;BME280_humidity;BME280_pressure;Samples;Min_cycle;Max_cycle;Signal;HPM_P1;HPM_P2
2021/05/01 00:02:22;;;;;;;49.30;40.37;;;10.00;99.90;;;;;;5052653;28;20841;-71
2021/05/01 00:04:48;;;;;;;44.10;34.60;;;10.10;99.90;;;;;;5053326;28;20654;-72
2021/05/01 00:07:13;;;;;;;43.60;34.90;;;10.10;99.90;;;;;;5053385;28;20175;-72
2021/05/01 00:09:39;;;;;;;47.73;35.80;;;10.10;99.90;;;;;;5053284;28;20244;-72
2021/05/01 00:12:05;;;;;;;44.00;33.47;;;10.10;99.90;;;;;;5054664;28;20749;-72
2021/05/01 00:14:31;;;;;;;44.27;34.47;;;10.00;99.90;;;;;;5057041;28;20178;-72
2021/05/01 00:16:56;;;;;;;49.43;34.00;;;9.90;99.90;;;;;;5057020;28;20533;-72
2021/05/01 00:19:22;;;;;;;48.83;36.30;;;9.90;99.90;;;;;;5055723;28;20208;-72
2021/05/01 00:21:48;;;;;;;48.97;36.07;;;9.90;99.90;;;;;;5057550;28;20224;-72
2021/05/01 00:24:14;;;;;;;47.23;35.20;;;9.90;99.90;;;;;;5057103;28;20820;-72
2021/05/01 00:26:41;;;;;;;46.37;35.43;;;9.90;99.90;;;;;;5057170;28;20172;-72
2021/05/01 00:29:06;;;;;;;43.10;34.00;;;10.00;99.90;;;;;;5056693;28;20918;-72
2021/05/01 00:31:34;;;;;;;47.53;35.23;;;10.00;99.90;;;;;;5056817;28;20421;-71
2021/05/01 00:34:00;;;;;;;49.73;34.97;;;9.90;99.90;;;;;;5056496;28;20200;-71
2021/05/01 00:36:26;;;;;;;52.80;38.27;;;9.90;99.90;;;;;;5056881;28;20439;-71
2021/05/01 00:38:51;;;;;;;49.20;36.87;;;9.90;99.90;;;;;;5056993;28;20593;-71
2021/05/01 00:41:17;;;;;;;49.23;36.43;;;10.00;99.90;;;;;;5057272;28;20243;-71
2021/05/01 00:43:43;;;;;;;47.70;35.47;;;10.00;99.90;;;;;;5055365;28;20174;-71
2021/05/01 00:46:08;;;;;;;55.30;39.17;;;10.00;99.90;;;;;;5056781;28;20170;-71
2021/05/01 00:48:34;;;;;;;46.73;36.07;;;10.00;99.90;;;;;;5068311;28;20193;-71
2021/05/01 00:51:01;;;;;;;53.87;37.90;;;9.90;99.90;;;;;;5073894;27;20421;-71
2021/05/01 00:53:27;;;;;;;53.30;38.07;;;9.90;99.90;;;;;;5065981;28;20178;-71
2021/05/01 00:55:53;;;;;;;54.67;37.97;;;9.90;99.90;;;;;;5057099;28;20485;-71
2021/05/01 00:58:20;;;;;;;46.80;36.33;;;9.90;99.90;;;;;;5057107;28;20781;-71
2021/05/01 01:01:07;;;;;;;50.60;37.00;;;9.80;99.90;;;;;;5057559;28;20401;-71
2021/05/01 01:03:32;;;;;;;50.90;36.87;;;9.80;99.90;;;;;;5056696;28;20882;-71
2021/05/01 01:05:59;;;;;;;55.30;40.00;;;9.80;99.90;;;;;;5056551;28;20417;-71
2021/05/01 01:08:24;;;;;;;48.90;36.57;;;9.80;99.90;;;;;;5056576;28;20409;-71
2021/05/01 01:10:50;;;;;;;55.60;39.80;;;9.80;99.90;;;;;;5057029;28;20412;-71
2021/05/01 01:13:16;;;;;;;49.67;37.30;;;9.70;99.90;;;;;;5056628;28;20186;-71
2021/05/01 01:15:42;;;;;;;52.83;38.23;;;9.70;99.90;;;;;;5056411;28;20420;-71
2021/05/01 01:18:07;;;;;;;56.30;40.37;;;9.70;99.90;;;;;;5056694;28;20205;-71
2021/05/01 01:20:33;;;;;;;54.00;39.50;;;9.70;99.90;;;;;;5055835;28;20530;-71
2021/05/01 01:22:59;;;;;;;53.80;38.40;;;9.60;99.90;;;;;;5055329;28;20174;-71
2021/05/01 01:25:24;;;;;;;55.13;38.70;;;9.70;99.90;;;;;;5055560;28;20170;-71
2021/05/01 01:27:50;;;;;;;53.40;37.80;;;9.60;99.90;;;;;;5055756;28;20634;-71
2021/05/01 01:30:18;;;;;;;52.80;38.23;;;9.60;99.90;;;;;;5057922;28;20241;-71
2021/05/01 01:32:45;;;;;;;51.63;37.33;;;9.60;99.90;;;;;;5058490;28;20817;-71
2021/05/01 01:35:13;;;;;;;54.97;38.87;;;9.60;99.90;;;;;;5064954;28;20401;-71
2021/05/01 01:37:44;;;;;;;55.90;45.50;;;9.50;99.90;;;;;;5054789;28;20423;-71
2021/05/01 01:40:12;;;;;;;53.73;41.03;;;9.60;99.90;;;;;;5055851;28;20189;-71
2021/05/01 01:42:41;;;;;;;55.10;40.50;;;9.40;99.90;;;;;;5055482;28;20572;-71
2021/05/01 01:45:07;;;;;;;55.10;39.40;;;9.40;99.90;;;;;;5055553;28;20514;-72
2021/05/01 01:47:33;;;;;;;52.73;37.30;;;9.50;99.90;;;;;;5056756;28;20865;-71
2021/05/01 01:49:59;;;;;;;46.77;34.97;;;9.50;99.90;;;;;;5055676;28;20448;-71
2021/05/01 01:52:24;;;;;;;43.90;34.23;;;9.60;99.90;;;;;;5054871;28;20173;-70
2021/05/01 01:54:50;;;;;;;47.13;35.50;;;9.50;99.90;;;;;;5055407;28;20239;-71
2021/05/01 01:57:15;;;;;;;45.97;33.73;;;9.60;99.90;;;;;;5055089;28;20242;-71
2021/05/01 01:59:42;;;;;;;44.97;33.27;;;9.50;99.90;;;;;;5055011;28;20200;-71
2021/05/01 02:02:08;;;;;;;43.87;31.57;;;9.30;99.90;;;;;;5054881;28;20221;-70
2021/05/01 02:04:34;;;;;;;46.13;32.50;;;9.30;99.90;;;;;;5054670;28;20444;-70
2021/05/01 02:06:59;;;;;;;44.90;34.10;;;9.30;99.90;;;;;;5054726;28;20178;-71
2021/05/01 02:09:25;;;;;;;47.60;33.87;;;9.40;99.90;;;;;;5054582;28;20192;-70
2021/05/01 02:11:50;;;;;;;48.33;34.27;;;9.40;99.90;;;;;;5054586;28;20198;-71
2021/05/01 02:14:16;;;;;;;47.83;34.40;;;9.40;99.90;;;;;;5054574;28;20180;-71
2021/05/01 02:16:41;;;;;;;46.20;34.30;;;9.30;99.90;;;;;;5054637;28;20703;-70
2021/05/01 02:19:07;;;;;;;49.17;35.67;;;9.40;99.90;;;;;;5054628;28;20193;-70
2021/05/01 02:21:32;;;;;;;48.90;35.10;;;9.40;99.90;;;;;;5055192;28;20501;-70
2021/05/01 02:23:58;;;;;;;47.83;35.17;;;9.40;99.90;;;;;;5054766;28;20216;-70
2021/05/01 02:26:23;;;;;;;48.07;34.60;;;9.30;99.90;;;;;;5054637;28;20182;-70
2021/05/01 02:28:49;;;;;;;50.60;36.50;;;9.30;99.90;;;;;;5054593;28;20219;-70
2021/05/01 02:31:15;;;;;;;48.77;34.77;;;9.20;99.90;;;;;;5053147;28;20257;-71
2021/05/01 02:33:41;;;;;;;51.50;36.87;;;9.10;99.90;;;;;;5054749;28;20417;-71
2021/05/01 02:36:07;;;;;;;54.90;37.10;;;8.90;99.90;;;;;;5054104;28;20423;-71
2021/05/01 02:38:32;;;;;;;54.13;36.60;;;8.70;99.90;;;;;;5054483;28;20985;-71
2021/05/01 02:40:59;;;;;;;53.47;35.70;;;8.70;99.90;;;;;;5054572;28;20202;-71
2021/05/01 02:43:24;;;;;;;52.00;34.53;;;8.80;99.90;;;;;;5054466;28;20487;-71
2021/05/01 02:45:50;;;;;;;50.10;35.97;;;8.80;99.90;;;;;;5054486;28;20415;-71
2021/05/01 02:48:15;;;;;;;54.33;37.23;;;8.90;99.90;;;;;;5053897;28;20230;-71
2021/05/01 02:50:41;;;;;;;55.73;38.00;;;9.00;99.90;;;;;;5054496;28;20198;-71
2021/05/01 02:53:07;;;;;;;61.27;40.73;;;9.10;99.90;;;;;;5054179;28;20202;-71
2021/05/01 02:55:33;;;;;;;65.87;40.47;;;9.00;99.90;;;;;;5054136;28;20193;-71
2021/05/01 02:57:59;;;;;;;64.70;40.77;;;8.80;99.90;;;;;;5053741;28;20532;-71
2021/05/01 03:00:26;;;;;;;60.37;39.50;;;8.80;99.90;;;;;;5054271;28;20201;-71
2021/05/01 03:02:52;;;;;;;69.67;42.27;;;8.90;99.90;;;;;;5054367;28;20181;-71
2021/05/01 03:05:17;;;;;;;65.10;41.60;;;8.90;99.90;;;;;;5054071;28;20503;-71
2021/05/01 03:07:44;;;;;;;66.00;43.50;;;9.00;99.90;;;;;;5053274;28;20517;-71
2021/05/01 03:10:24;;;;;;;65.60;40.87;;;9.00;99.90;;;;;;5054763;28;20679;-70
2021/05/01 03:12:50;;;;;;;66.03;40.63;;;9.10;99.90;;;;;;5054425;28;20397;-71
2021/05/01 03:15:16;;;;;;;74.30;44.13;;;9.00;99.90;;;;;;5054201;28;20415;-71
2021/05/01 03:17:42;;;;;;;69.10;42.30;;;9.00;99.90;;;;;;5053601;28;20198;-72
2021/05/01 03:20:09;;;;;;;64.50;41.90;;;9.00;99.90;;;;;;5053879;28;20806;-71
2021/05/01 03:22:35;;;;;;;68.32;42.72;;;9.10;99.90;;;;;;5054141;28;20742;-71
2021/05/01 03:25:01;;;;;;;72.00;45.37;;;9.10;99.90;;;;;;5053147;28;20224;-71
2021/05/01 03:27:27;;;;;;;68.30;41.97;;;9.00;99.90;;;;;;5052906;28;20224;-71
2021/05/01 03:29:53;;;;;;;70.50;42.37;;;8.90;99.90;;;;;;5053009;28;20864;-71
2021/05/01 03:32:19;;;;;;;73.83;43.07;;;8.80;99.90;;;;;;5054277;28;20195;-71
2021/05/01 03:34:44;;;;;;;73.23;45.77;;;8.70;99.90;;;;;;5053787;28;20401;-71
2021/05/01 03:37:10;;;;;;;76.00;46.50;;;8.70;99.90;;;;;;5054065;28;20224;-71
2021/05/01 03:39:36;;;;;;;70.97;43.13;;;8.70;99.90;;;;;;5053924;28;20558;-71
2021/05/01 03:42:01;;;;;;;72.80;43.50;;;8.70;99.90;;;;;;5054642;28;20162;-71
2021/05/01 03:44:27;;;;;;;72.27;44.40;;;8.60;99.90;;;;;;5055052;28;20680;-70
2021/05/01 03:46:53;;;;;;;74.90;44.10;;;8.40;99.90;;;;;;5053865;28;20197;-71
2021/05/01 03:49:19;;;;;;;81.93;43.97;;;8.30;99.90;;;;;;5054256;28;20432;-71
2021/05/01 03:51:44;;;;;;;73.20;45.20;;;8.30;99.90;;;;;;5055000;28;20418;-71
2021/05/01 03:54:10;;;;;;;77.33;44.70;;;8.30;99.90;;;;;;5054329;28;20704;-71
2021/05/01 03:56:35;;;;;;;73.60;45.37;;;8.30;99.90;;;;;;5054687;28;20162;-71
2021/05/01 03:59:01;;;;;;;73.53;43.40;;;8.50;99.90;;;;;;5054330;28;20207;-71
2021/05/01 04:01:27;;;;;;;76.43;45.60;;;8.50;99.90;;;;;;5054747;28;20174;-71
2021/05/01 04:03:53;;;;;;;76.67;45.40;;;8.40;99.90;;;;;;5053496;28;20170;-71
2021/05/01 04:06:19;;;;;;;71.73;44.17;;;8.40;99.90;;;;;;5055624;28;20175;-70
2021/05/01 04:08:44;;;;;;;73.77;43.87;;;8.40;99.90;;;;;;5055028;28;20452;-70
2021/05/01 04:11:11;;;;;;;76.73;43.53;;;8.20;99.90;;;;;;5054795;28;20241;-71
2021/05/01 04:13:44;;;;;;;87.33;47.23;;;8.10;99.90;;;;;;5053861;28;20186;-71
2021/05/01 04:16:09;;;;;;;76.63;46.17;;;8.20;99.90;;;;;;5054625;28;20399;-71
2021/05/01 04:18:35;;;;;;;85.57;48.10;;;8.10;99.90;;;;;;5054100;28;20469;-71
2021/05/01 04:21:00;;;;;;;78.53;45.67;;;8.20;99.90;;;;;;5053237;28;20179;-70
2021/05/01 04:23:26;;;;;;;72.40;43.83;;;8.10;99.90;;;;;;5052938;28;20240;-71
2021/05/01 04:25:51;;;;;;;85.43;46.73;;;8.20;99.90;;;;;;5051718;28;20198;-71
2021/05/01 04:28:17;;;;;;;68.87;44.27;;;8.30;99.90;;;;;;5053333;28;20180;-71
2021/05/01 04:30:42;;;;;;;75.10;43.90;;;8.40;99.90;;;;;;5054981;28;20212;-70
2021/05/01 04:33:08;;;;;;;75.80;42.30;;;8.30;99.90;;;;;;5053503;28;20190;-70
2021/05/01 04:35:33;;;;;;;71.80;45.10;;;8.20;99.90;;;;;;5054009;28;20204;-71
2021/05/01 04:37:59;;;;;;;69.57;41.93;;;8.10;99.90;;;;;;5052405;28;20206;-70
2021/05/01 04:40:24;;;;;;;66.53;43.40;;;8.10;99.90;;;;;;5054088;28;20197;-70
2021/05/01 04:42:52;;;;;;;67.03;43.50;;;8.10;99.90;;;;;;5054592;28;20194;-72
2021/05/01 04:45:19;;;;;;;69.50;42.53;;;8.20;99.90;;;;;;5053679;28;20168;-71
2021/05/01 04:47:45;;;;;;;74.00;43.83;;;8.30;99.90;;;;;;5052916;28;20528;-71
2021/05/01 04:50:12;;;;;;;69.90;41.00;;;8.40;99.90;;;;;;5053922;28;20479;-71
2021/05/01 04:52:38;;;;;;;58.17;39.53;;;8.50;99.90;;;;;;5053572;28;20444;-70
2021/05/01 04:55:13;;;;;;;67.50;39.80;;;8.50;99.90;;;;;;5053724;28;20483;-71
2021/05/01 04:57:48;;;;;;;63.53;40.23;;;8.50;99.90;;;;;;5054628;28;20478;-71
2021/05/01 05:00:17;;;;;;;59.60;36.90;;;8.50;99.90;;;;;;5057743;28;20440;-70
2021/05/01 05:02:43;;;;;;;63.60;38.17;;;8.60;99.90;;;;;;5058006;28;20431;-70
2021/05/01 05:05:10;;;;;;;68.90;40.70;;;8.50;99.90;;;;;;5065190;28;20441;-70
2021/05/01 05:07:36;;;;;;;67.83;40.47;;;8.40;99.90;;;;;;5061531;28;20407;-71
2021/05/01 05:10:01;;;;;;;62.67;39.03;;;8.30;99.90;;;;;;5057220;28;20446;-69
2021/05/01 05:12:27;;;;;;;68.40;41.57;;;8.40;99.90;;;;;;5057639;28;20242;-71
2021/05/01 05:14:52;;;;;;;62.60;38.40;;;8.50;99.90;;;;;;5057940;28;20176;-72
2021/05/01 05:17:19;;;;;;;62.77;38.13;;;8.60;99.90;;;;;;5056136;28;20257;-70
2021/05/01 05:19:45;;;;;;;66.17;40.30;;;8.70;99.90;;;;;;5055835;28;20274;-70
2021/05/01 05:22:11;;;;;;;66.03;39.67;;;8.70;99.90;;;;;;5055937;28;20421;-70
2021/05/01 05:24:38;;;;;;;65.90;39.80;;;8.80;99.90;;;;;;5055392;28;20519;-71
2021/05/01 05:27:04;;;;;;;75.03;42.00;;;8.50;99.90;;;;;;5054018;28;20182;-71
2021/05/01 05:29:30;;;;;;;76.63;48.13;;;8.50;99.90;;;;;;5054240;28;20446;-70
2021/05/01 05:31:56;;;;;;;67.20;42.97;;;8.50;99.90;;;;;;5053907;28;20247;-71
2021/05/01 05:34:22;;;;;;;70.23;42.43;;;8.50;99.90;;;;;;5058391;28;20402;-71
2021/05/01 05:36:48;;;;;;;68.43;42.27;;;8.50;99.90;;;;;;5055290;28;20484;-71
2021/05/01 05:39:15;;;;;;;61.50;39.63;;;8.60;99.90;;;;;;5054888;28;20945;-71
2021/05/01 05:41:41;;;;;;;63.10;40.50;;;8.70;99.90;;;;;;5055859;28;20225;-71
2021/05/01 05:44:06;;;;;;;65.40;39.27;;;8.80;99.90;;;;;;5055069;28;20776;-71
2021/05/01 05:46:32;;;;;;;63.37;39.20;;;8.80;99.90;;;;;;5054220;28;20630;-71
2021/05/01 05:48:57;;;;;;;62.83;38.80;;;8.80;99.90;;;;;;5055298;28;20652;-71
2021/05/01 05:51:23;;;;;;;63.23;40.03;;;8.90;99.90;;;;;;5055278;28;20194;-71
2021/05/01 05:53:48;;;;;;;66.10;39.60;;;8.80;99.90;;;;;;5055007;28;20182;-71
2021/05/01 05:56:14;;;;;;;63.23;37.60;;;8.70;99.90;;;;;;5055322;28;20198;-71
2021/05/01 05:58:41;;;;;;;59.90;34.70;;;8.40;99.90;;;;;;5054718;28;20531;-71
2021/05/01 06:01:07;;;;;;;60.67;38.17;;;8.30;99.90;;;;;;5055005;28;20184;-71
2021/05/01 06:03:34;;;;;;;56.07;35.43;;;8.20;99.90;;;;;;5054824;28;20490;-71
2021/05/01 06:06:04;;;;;;;49.33;34.07;;;8.20;99.90;;;;;;5055043;28;20180;-71
2021/05/01 06:08:31;;;;;;;57.77;34.10;;;8.10;99.90;;;;;;5054823;28;20443;-71
2021/05/01 06:10:58;;;;;;;56.70;34.30;;;7.90;99.90;;;;;;5054951;28;20404;-71
2021/05/01 06:13:26;;;;;;;56.77;34.33;;;7.80;99.90;;;;;;5054737;28;20503;-71
2021/05/01 06:15:57;;;;;;;54.57;32.53;;;7.70;99.90;;;;;;5054606;28;20429;-71
2021/05/01 06:18:24;;;;;;;46.10;31.17;;;7.70;99.90;;;;;;5054527;28;20513;-71
2021/05/01 06:20:50;;;;;;;50.90;33.67;;;7.80;99.90;;;;;;5054721;28;20430;-71
2021/05/01 06:23:17;;;;;;;44.50;30.73;;;7.90;99.90;;;;;;5054992;28;20517;-71
2021/05/01 06:25:45;;;;;;;47.50;30.60;;;8.00;99.90;;;;;;5054782;28;20194;-71
2021/05/01 06:28:10;;;;;;;45.20;31.00;;;8.10;99.90;;;;;;5054669;28;20420;-71
2021/05/01 06:30:39;;;;;;;42.47;29.40;;;8.20;99.90;;;;;;5044053;28;20837;-71
2021/05/01 06:33:14;;;;;;;43.47;29.40;;;8.40;99.90;;;;;;5046437;28;20185;-71
2021/05/01 06:35:42;;;;;;;34.63;25.57;;;8.50;99.90;;;;;;5041197;28;20781;-71
2021/05/01 06:38:08;;;;;;;40.27;26.30;;;8.50;99.90;;;;;;5044228;28;20467;-71
2021/05/01 06:40:45;;;;;;;40.97;24.80;;;8.50;99.90;;;;;;5043546;28;20508;-71
2021/05/01 06:43:31;;;;;;;36.90;25.37;;;8.50;99.90;;;;;;5045649;28;20424;-72
2021/05/01 06:45:59;;;;;;;39.60;26.87;;;8.70;99.90;;;;;;5040410;28;20425;-72
2021/05/01 06:48:29;;;;;;;37.50;24.03;;;9.00;99.90;;;;;;5046639;28;20524;-71
2021/05/01 06:51:00;;;;;;;34.30;23.93;;;9.10;99.90;;;;;;5035055;28;20960;-72
2021/05/01 06:53:35;;;;;;;33.27;24.90;;;9.10;99.90;;;;;;5037809;28;20447;-71
2021/05/01 06:56:03;;;;;;;34.63;25.87;;;9.00;99.90;;;;;;5046451;28;20533;-72
2021/05/01 06:58:33;;;;;;;31.43;22.80;;;9.10;99.90;;;;;;5045118;28;20475;-71
2021/05/01 07:01:03;;;;;;;33.53;24.00;;;8.90;99.90;;;;;;5043601;28;20447;-71
2021/05/01 07:03:31;;;;;;;32.53;24.63;;;8.90;99.90;;;;;;5046377;28;20435;-72
2021/05/01 07:05:59;;;;;;;33.00;24.07;;;9.00;99.90;;;;;;5045115;28;20425;-71
2021/05/01 07:08:25;;;;;;;32.53;22.40;;;9.20;99.90;;;;;;5046011;28;20949;-71
2021/05/01 07:10:52;;;;;;;31.23;21.27;;;9.30;99.90;;;;;;5044707;28;20482;-71
2021/05/01 07:13:17;;;;;;;30.93;22.00;;;9.40;99.90;;;;;;5034145;28;20879;-71
2021/05/01 07:15:44;;;;;;;28.97;21.40;;;9.50;99.90;;;;;;5034291;28;20507;-71
2021/05/01 07:18:10;;;;;;;33.40;21.67;;;9.50;99.90;;;;;;5034107;28;20193;-71
2021/05/01 07:20:37;;;;;;;34.40;23.77;;;9.50;99.90;;;;;;5059992;28;20436;-70
2021/05/01 07:23:02;;;;;;;33.47;24.30;;;9.20;99.90;;;;;;5044591;28;20432;-71
2021/05/01 07:25:28;;;;;;;29.30;22.30;;;9.10;99.90;;;;;;5046155;28;20200;-71
2021/05/01 07:27:55;;;;;;;27.63;22.20;;;9.00;99.90;;;;;;5052994;28;20225;-71
2021/05/01 07:30:23;;;;;;;30.23;22.60;;;9.10;99.90;;;;;;5055465;28;20235;-71
2021/05/01 07:32:52;;;;;;;29.20;21.70;;;9.30;99.90;;;;;;5047560;28;20783;-71
2021/05/01 07:35:20;;;;;;;39.53;23.40;;;9.40;99.90;;;;;;5040681;28;20457;-71
2021/05/01 07:37:50;;;;;;;26.53;21.80;;;9.30;99.90;;;;;;5047974;28;20472;-71
2021/05/01 07:40:28;;;;;;;29.50;21.63;;;9.40;99.90;;;;;;5044679;28;20582;-71
2021/05/01 07:42:55;;;;;;;29.30;22.87;;;9.60;99.90;;;;;;5047405;28;20418;-71
2021/05/01 07:45:22;;;;;;;26.23;20.37;;;9.80;99.90;;;;;;5044199;28;20542;-71
2021/05/01 07:47:55;;;;;;;27.97;20.63;;;9.90;99.90;;;;;;5043257;28;20446;-72
2021/05/01 07:50:24;;;;;;;26.03;20.70;;;9.80;99.90;;;;;;5037104;28;20968;-71
2021/05/01 07:52:51;;;;;;;24.37;18.77;;;9.70;99.60;;;;;;5045761;28;20467;-72
2021/05/01 07:55:17;;;;;;;28.23;20.00;;;9.80;99.70;;;;;;5043663;28;20459;-72
2021/05/01 07:57:43;;;;;;;27.47;21.33;;;10.00;99.30;;;;;;5044524;28;20460;-72
2021/05/01 08:00:09;;;;;;;28.50;22.20;;;10.20;99.20;;;;;;5042095;28;21069;-71
2021/05/01 08:02:35;;;;;;;27.53;19.93;;;10.40;98.80;;;;;;5040440;28;20182;-71
2021/05/01 08:05:02;;;;;;;25.63;19.10;;;10.30;98.00;;;;;;5043194;28;20455;-72
2021/05/01 08:07:28;;;;;;;27.13;19.70;;;9.90;98.10;;;;;;5039651;28;20198;-72
2021/05/01 08:09:54;;;;;;;23.37;18.47;;;9.70;98.40;;;;;;5048176;28;20443;-72
2021/05/01 08:12:19;;;;;;;25.87;20.00;;;9.80;98.70;;;;;;5040838;28;20189;-72
2021/05/01 08:14:45;;;;;;;31.33;21.00;;;9.90;98.60;;;;;;5040930;28;20213;-72
2021/05/01 08:17:10;;;;;;;29.13;19.47;;;10.00;97.30;;;;;;5048337;28;20208;-71
2021/05/01 08:19:36;;;;;;;31.07;21.37;;;9.80;97.70;;;;;;5047213;28;20852;-72
2021/05/01 08:22:01;;;;;;;25.73;19.50;;;9.70;98.40;;;;;;5046103;28;20185;-71
2021/05/01 08:24:27;;;;;;;26.03;19.60;;;9.80;98.50;;;;;;5042164;28;20212;-71
2021/05/01 08:26:52;;;;;;;27.43;19.83;;;9.90;98.20;;;;;;5042197;28;20215;-71
2021/05/01 08:29:18;;;;;;;26.50;19.73;;;10.10;97.00;;;;;;5074726;28;20209;-72
2021/05/01 08:31:43;;;;;;;27.47;21.27;;;10.30;95.70;;;;;;5067670;28;20183;-71
2021/05/01 08:34:09;;;;;;;23.50;19.20;;;10.20;95.90;;;;;;5053530;28;20186;-71
2021/05/01 08:36:35;;;;;;;25.63;20.10;;;9.90;96.50;;;;;;5046924;28;20560;-71
2021/05/01 08:39:00;;;;;;;24.50;19.60;;;9.70;96.60;;;;;;5044744;28;20209;-71
2021/05/01 08:41:26;;;;;;;21.67;18.00;;;9.80;97.20;;;;;;5049779;28;20189;-71
2021/05/01 08:43:52;;;;;;;22.87;17.73;;;9.90;96.90;;;;;;5039307;28;20194;-70
2021/05/01 08:46:22;;;;;;;22.50;17.93;;;9.90;96.70;;;;;;5047932;28;20201;-71
2021/05/01 08:48:49;;;;;;;23.67;18.43;;;9.90;96.50;;;;;;5044875;28;20467;-70
2021/05/01 08:51:16;;;;;;;26.47;18.33;;;9.70;97.00;;;;;;5050781;28;20826;-72
2021/05/01 08:53:42;;;;;;;25.33;19.30;;;9.70;97.20;;;;;;5044410;28;20427;-71
2021/05/01 08:56:08;;;;;;;23.67;17.57;;;9.90;97.00;;;;;;5047090;28;20444;-71
2021/05/01 08:58:34;;;;;;;18.50;15.97;;;10.20;96.10;;;;;;5049034;28;20578;-71
2021/05/01 09:01:02;;;;;;;18.80;15.50;;;10.50;95.10;;;;;;5051725;28;20213;-71
2021/05/01 09:03:28;;;;;;;17.57;14.77;;;10.80;94.50;;;;;;5049649;28;20199;-73
2021/05/01 09:05:56;;;;;;;17.95;14.73;;;11.10;93.90;;;;;;5042671;28;20445;-72
2021/05/01 09:08:23;;;;;;;23.63;16.40;;;11.40;94.80;;;;;;5047631;28;20231;-72
2021/05/01 09:10:52;;;;;;;20.47;16.03;;;11.60;94.20;;;;;;5043748;28;20789;-71
2021/05/01 09:13:25;;;;;;;17.93;16.03;;;11.60;91.80;;;;;;5051989;28;20420;-71
2021/05/01 09:16:04;;;;;;;17.37;15.50;;;11.30;91.40;;;;;;5052463;28;20427;-72
2021/05/01 09:18:54;;;;;;;19.90;15.07;;;11.30;92.10;;;;;;5046533;28;20491;-72
2021/05/01 09:21:21;;;;;;;23.47;15.40;;;11.40;92.20;;;;;;5052384;28;20846;-71
2021/05/01 09:23:47;;;;;;;16.43;14.63;;;11.60;91.90;;;;;;5051965;28;20470;-71
2021/05/01 09:26:13;;;;;;;19.37;13.13;;;11.50;90.20;;;;;;5043353;28;20456;-71
2021/05/01 09:28:44;;;;;;;13.60;11.37;;;11.40;90.10;;;;;;5062982;28;20177;-71
2021/05/01 09:31:18;;;;;;;13.40;10.83;;;11.50;90.00;;;;;;5042724;28;20452;-70
2021/05/01 09:33:49;;;;;;;13.80;11.33;;;11.60;88.70;;;;;;5044778;28;20442;-71
2021/05/01 09:36:24;;;;;;;12.57;11.37;;;11.70;88.20;;;;;;5039314;28;20453;-71
2021/05/01 09:38:52;;;;;;;13.40;12.00;;;11.80;88.50;;;;;;5053168;28;20480;-71
2021/05/01 09:41:23;;;;;;;15.10;12.03;;;11.90;88.30;;;;;;5050794;28;20433;-71
2021/05/01 09:43:58;;;;;;;16.00;13.00;;;12.00;88.10;;;;;;5044105;28;20420;-71
2021/05/01 09:46:24;;;;;;;18.37;14.13;;;12.30;87.40;;;;;;5037909;28;20902;-71
2021/05/01 09:49:13;;;;;;;12.80;11.50;;;12.20;84.40;;;;;;5043013;28;20445;-71
2021/05/01 09:51:43;;;;;;;11.97;10.77;;;12.30;85.50;;;;;;5035044;28;20824;-71
2021/05/01 09:54:10;;;;;;;12.97;11.27;;;12.50;84.20;;;;;;5036348;28;20417;-71
2021/05/01 09:56:37;;;;;;;13.13;11.53;;;12.50;81.70;;;;;;5050822;28;20507;-71
2021/05/01 09:59:03;;;;;;;13.33;11.93;;;12.60;82.60;;;;;;5045091;28;20469;-71
2021/05/01 10:01:29;;;;;;;14.70;13.20;;;12.70;82.30;;;;;;5046449;28;20460;-71
2021/05/01 10:04:13;;;;;;;12.93;11.67;;;12.90;82.40;;;;;;5042984;28;20660;-71
2021/05/01 10:06:43;;;;;;;12.90;11.60;;;12.90;81.90;;;;;;5051729;28;20689;-72
2021/05/01 10:09:09;;;;;;;14.03;11.27;;;13.00;79.80;;;;;;5054618;28;20436;-72
2021/05/01 10:11:35;;;;;;;11.63;10.43;;;13.20;78.60;;;;;;5054066;28;20401;-72
2021/05/01 10:14:01;;;;;;;13.67;12.30;;;13.40;77.70;;;;;;5054218;28;20201;-72
2021/05/01 10:16:27;;;;;;;13.27;11.60;;;13.40;76.60;;;;;;5054022;28;20412;-71
2021/05/01 10:19:06;;;;;;;11.43;10.33;;;13.50;75.30;;;;;;5050517;28;20833;-72
2021/05/01 10:21:33;;;;;;;11.50;10.50;;;13.30;74.80;;;;;;5048722;28;20185;-72
2021/05/01 10:23:59;;;;;;;13.67;11.40;;;13.50;74.40;;;;;;5051583;28;20501;-72
2021/05/01 10:26:24;;;;;;;11.77;10.57;;;13.50;74.20;;;;;;5049808;28;20460;-72
2021/05/01 10:28:54;;;;;;;10.00;9.10;;;13.50;73.00;;;;;;5053843;28;20201;-72
2021/05/01 10:31:22;;;;;;;9.33;8.43;;;13.40;70.30;;;;;;5050882;28;20701;-72
2021/05/01 10:33:50;;;;;;;10.40;9.30;;;13.00;65.70;;;;;;5048203;28;20444;-70
2021/05/01 10:36:26;;;;;;;10.47;9.23;;;13.00;68.00;;;;;;5050517;28;20416;-71
2021/05/01 10:39:06;;;;;;;10.03;9.07;;;12.90;69.40;;;;;;5050553;28;20541;-72
2021/05/01 10:41:34;;;;;;;9.40;8.50;;;12.70;65.90;;;;;;5050260;28;20578;-71
2021/05/01 10:44:02;;;;;;;9.23;7.90;;;12.40;65.40;;;;;;5050924;28;20432;-71
2021/05/01 10:46:30;;;;;;;10.03;9.10;;;12.40;66.60;;;;;;5050701;28;20482;-70
2021/05/01 10:49:07;;;;;;;10.70;9.70;;;12.60;67.70;;;;;;5050204;28;21283;-70
2021/05/01 10:51:42;;;;;;;10.97;9.90;;;12.80;67.70;;;;;;5057032;28;20468;-71
2021/05/01 10:54:17;;;;;;;10.30;9.33;;;12.90;67.10;;;;;;5062760;28;20454;-70
2021/05/01 10:56:50;;;;;;;10.10;9.03;;;13.10;67.60;;;;;;5050115;28;20405;-70
2021/05/01 10:59:23;;;;;;;9.87;8.97;;;13.30;67.20;;;;;;5060073;28;20490;-72
2021/05/01 11:01:51;;;;;;;12.70;11.50;;;13.50;67.90;;;;;;5070383;28;20424;-71
2021/05/01 11:04:19;;;;;;;12.80;11.43;;;13.50;67.50;;;;;;5060274;28;20427;-71
2021/05/01 11:06:49;;;;;;;12.73;11.43;;;13.60;67.90;;;;;;5052799;28;20424;-71
2021/05/01 11:09:44;;;;;;;11.20;10.10;;;13.60;68.60;;;;;;5053591;28;20972;-71
2021/05/01 11:12:12;;;;;;;12.23;11.07;;;13.70;68.00;;;;;;5051617;28;20476;-71
2021/05/01 11:14:49;;;;;;;14.10;11.50;;;13.50;65.10;;;;;;5032768;28;21029;-70
2021/05/01 11:17:47;;;;;;;12.90;11.60;;;13.00;65.00;;;;;;5050063;28;20574;-70
2021/05/01 11:20:16;;;;;;;14.20;11.60;;;12.90;67.30;;;;;;5050394;28;20567;-71
2021/05/01 11:22:44;;;;;;;13.93;11.20;;;12.90;67.10;;;;;;5046705;28;20556;-72
2021/05/01 11:25:12;;;;;;;13.93;11.00;;;12.80;65.30;;;;;;5041451;28;20428;-71
2021/05/01 11:27:38;;;;;;;12.17;10.97;;;12.70;65.70;;;;;;5046105;28;20449;-71
2021/05/01 11:30:06;;;;;;;12.53;10.80;;;12.70;65.80;;;;;;5049292;28;20547;-71
2021/05/01 11:32:32;;;;;;;12.97;11.67;;;12.70;64.80;;;;;;5050001;28;20431;-71
2021/05/01 11:35:08;;;;;;;12.83;11.60;;;12.80;64.90;;;;;;5050445;28;20405;-71
2021/05/01 11:37:42;;;;;;;12.50;11.30;;;12.90;65.70;;;;;;5049274;28;20276;-72
2021/05/01 11:40:11;;;;;;;15.40;12.20;;;12.90;65.20;;;;;;5049721;28;20441;-71
2021/05/01 11:42:38;;;;;;;13.20;10.13;;;12.90;64.70;;;;;;5049433;28;20435;-71
2021/05/01 11:45:11;;;;;;;13.90;12.17;;;12.70;61.40;;;;;;5049902;28;20417;-71
2021/05/01 11:47:40;;;;;;;12.23;10.93;;;12.40;63.60;;;;;;5039617;28;20992;-71
2021/05/01 11:50:09;;;;;;;10.10;9.07;;;12.50;65.10;;;;;;5049526;28;20463;-71
2021/05/01 11:52:59;;;;;;;10.37;7.87;;;12.50;60.00;;;;;;5052021;28;20533;-71
2021/05/01 11:55:42;;;;;;;9.43;8.50;;;12.40;57.00;;;;;;5035437;28;20919;-71
2021/05/01 11:58:09;;;;;;;11.03;9.40;;;12.30;58.20;;;;;;5033071;28;20484;-69
2021/05/01 12:00:38;;;;;;;10.70;9.60;;;12.30;59.50;;;;;;5034186;28;20813;-69
2021/05/01 12:03:22;;;;;;;11.20;10.17;;;12.50;61.40;;;;;;5043630;28;20419;-69
2021/05/01 12:06:13;;;;;;;10.30;9.30;;;12.60;62.20;;;;;;5054228;28;20971;-70
2021/05/01 12:08:39;;;;;;;10.87;9.47;;;12.90;61.80;;;;;;5058201;28;20891;-70
2021/05/01 12:11:06;;;;;;;9.80;8.90;;;12.90;59.00;;;;;;5064598;28;20437;-71
2021/05/01 12:13:35;;;;;;;9.70;8.63;;;13.00;58.90;;;;;;5060356;28;20257;-70
2021/05/01 12:16:02;;;;;;;10.47;9.50;;;13.20;59.10;;;;;;5057482;28;20435;-70
2021/05/01 12:18:42;;;;;;;10.50;9.50;;;13.30;59.20;;;;;;5057511;28;20472;-70
2021/05/01 12:21:08;;;;;;;9.40;8.53;;;13.40;58.90;;;;;;5057478;28;20471;-70
2021/05/01 12:23:43;;;;;;;9.83;8.87;;;13.60;59.20;;;;;;5052200;28;20451;-70
2021/05/01 12:26:09;;;;;;;11.20;9.87;;;13.70;59.10;;;;;;5055449;28;20475;-70
2021/05/01 12:28:36;;;;;;;11.40;10.40;;;13.40;59.30;;;;;;5054584;28;20504;-70
2021/05/01 12:31:04;;;;;;;11.10;10.00;;;13.10;59.70;;;;;;5056707;28;20425;-70
2021/05/01 12:33:29;;;;;;;10.40;9.40;;;12.90;59.80;;;;;;5057948;28;20427;-70
2021/05/01 12:36:09;;;;;;;9.43;8.70;;;12.90;59.70;;;;;;5057019;28;20413;-70
2021/05/01 12:38:37;;;;;;;10.47;9.57;;;12.90;59.60;;;;;;5056409;28;20194;-70
2021/05/01 12:41:14;;;;;;;10.07;9.17;;;12.90;59.60;;;;;;5057205;28;20401;-70